Time;durP1;ratioP1;P1;durP2;ratioP2;P2;SDS_P1;SDS_P2;PMS_P1;PMS_P2;Temp;Humidity;BMP_temperature;BMP_pressure;BME280_temperature;BME280_humidity;BME280_pressure;Samples;Min_cycle;Max_cycle;Signal;HPM_P1;HPM_P2
2022/12/24 00:00:57;;;;;;;9.38;7.35;;;7.20;99.90;;;;;;5134379;27;20415;-62
2022/12/24 00:03:24;;;;;;;10.20;7.70;;;7.20;99.90;;;;;;5133985;27;20459;-62
2022/12/24 00:05:51;;;;;;;9.93;7.60;;;7.20;99.90;;;;;;5133695;27;20414;-62
2022/12/24 00:08:18;;;;;;;10.80;7.63;;;7.20;99.90;;;;;;5133524;27;20770;-61
2022/12/24 00:10:48;;;;;;;10.88;8.00;;;7.20;99.90;;;;;;5133718;27;20473;-62
2022/12/24 00:13:15;;;;;;;10.90;7.75;;;7.10;99.90;;;;;;5133824;28;20417;-62
2022/12/24 00:15:43;;;;;;;9.23;7.40;;;7.20;99.90;;;;;;5132940;28;20997;-60
2022/12/24 00:18:10;;;;;;;11.60;8.15;;;7.10;99.90;;;;;;5133560;28;20414;-61
2022/12/24 00:20:37;;;;;;;11.20;7.40;;;7.20;99.90;;;;;;5132782;28;20413;-62
2022/12/24 00:23:03;;;;;;;10.25;7.80;;;7.10;99.90;;;;;;5133296;28;20410;-62
2022/12/24 00:25:30;;;;;;;10.38;7.68;;;7.10;99.90;;;;;;5133289;27;20406;-62
2022/12/24 00:27:57;;;;;;;11.00;8.00;;;7.10;99.90;;;;;;5137978;27;20410;-61
2022/12/24 00:30:24;;;;;;;10.27;7.30;;;7.10;99.90;;;;;;5137387;27;20418;-62
2022/12/24 00:32:52;;;;;;;10.70;7.30;;;7.10;99.90;;;;;;5137371;27;20528;-61
2022/12/24 00:35:18;;;;;;;12.13;7.90;;;7.10;99.90;;;;;;5136764;27;20772;-61
2022/12/24 00:37:47;;;;;;;10.63;7.53;;;7.10;99.90;;;;;;5137298;27;20417;-62
2022/12/24 00:40:14;;;;;;;11.17;7.27;;;7.10;99.90;;;;;;5137198;27;20415;-62
2022/12/24 00:42:41;;;;;;;11.18;7.57;;;7.20;99.90;;;;;;5137873;27;20417;-61
2022/12/24 00:45:09;;;;;;;10.00;7.55;;;7.20;99.90;;;;;;5138069;27;20429;-61
2022/12/24 00:47:35;;;;;;;10.57;7.35;;;7.20;99.90;;;;;;5137299;27;20882;-62
2022/12/24 00:50:04;;;;;;;10.85;7.40;;;7.20;99.90;;;;;;5137710;27;20782;-62
2022/12/24 00:52:31;;;;;;;11.07;8.20;;;7.20;99.90;;;;;;5137607;27;20406;-61
2022/12/24 00:54:58;;;;;;;11.82;8.50;;;7.10;99.90;;;;;;5136697;27;20406;-61
2022/12/24 00:57:24;;;;;;;11.60;8.48;;;7.10;99.90;;;;;;5136943;27;20433;-62
2022/12/24 00:59:51;;;;;;;12.18;8.38;;;7.20;99.90;;;;;;5136674;27;20903;-61
2022/12/24 01:02:18;;;;;;;13.32;8.45;;;7.20;99.90;;;;;;5136669;27;20407;-61
2022/12/24 01:07:31;;;;;;;12.60;8.80;;;7.20;99.90;;;;;;5136824;27;20747;-61
2022/12/24 01:09:57;;;;;;;11.77;8.68;;;7.20;99.90;;;;;;5136341;27;20751;-61
2022/12/24 01:12:24;;;;;;;9.45;7.53;;;7.20;99.90;;;;;;5136887;27;20410;-61
2022/12/24 01:14:51;;;;;;;10.40;7.80;;;7.20;99.90;;;;;;5136723;27;20411;-62
2022/12/24 01:17:18;;;;;;;10.18;8.38;;;7.30;99.90;;;;;;5136688;27;20422;-62
2022/12/24 01:19:45;;;;;;;11.30;7.60;;;7.30;99.90;;;;;;5136209;27;20465;-62
2022/12/24 01:22:11;;;;;;;10.50;7.65;;;7.30;99.90;;;;;;5136252;27;20433;-62
2022/12/24 01:24:40;;;;;;;10.43;7.60;;;7.30;99.90;;;;;;5135843;27;20426;-62
2022/12/24 01:27:07;;;;;;;10.10;7.72;;;7.30;99.90;;;;;;5136361;27;20409;-61
2022/12/24 01:29:34;;;;;;;10.90;7.60;;;7.30;99.90;;;;;;5135930;27;20983;-60
2022/12/24 01:32:00;;;;;;;10.65;7.68;;;7.30;99.90;;;;;;5135882;27;20918;-62
2022/12/24 01:34:27;;;;;;;10.82;8.20;;;7.40;99.90;;;;;;5136091;27;20417;-61
2022/12/24 01:36:54;;;;;;;10.35;7.85;;;7.40;99.90;;;;;;5135739;27;20418;-61
2022/12/24 01:39:20;;;;;;;11.90;9.00;;;7.40;99.90;;;;;;5135674;27;20407;-62
2022/12/24 01:44:51;;;;;;;12.05;8.38;;;7.40;99.90;;;;;;5113219;28;20423;-62
2022/12/24 01:47:21;;;;;;;10.80;8.40;;;7.40;99.90;;;;;;5131386;27;20407;-62
2022/12/24 01:49:51;;;;;;;12.10;8.63;;;7.40;99.90;;;;;;5135550;27;20965;-62
2022/12/24 01:52:22;;;;;;;10.00;7.95;;;7.50;99.90;;;;;;5135669;27;20414;-62
2022/12/24 01:54:52;;;;;;;10.02;7.60;;;7.50;99.90;;;;;;5135490;27;20778;-62
2022/12/24 01:57:25;;;;;;;13.60;8.32;;;7.50;99.90;;;;;;5135286;27;20414;-61
2022/12/24 01:59:56;;;;;;;10.27;7.63;;;7.50;99.90;;;;;;5135165;27;20406;-62
2022/12/24 02:02:23;;;;;;;11.30;8.30;;;7.50;99.90;;;;;;5135464;27;20399;-63
2022/12/24 02:04:56;;;;;;;10.77;7.97;;;7.50;99.90;;;;;;5135435;27;20418;-62
2022/12/24 02:07:23;;;;;;;11.15;8.45;;;7.50;99.90;;;;;;5135489;27;20402;-62
2022/12/24 02:09:53;;;;;;;12.23;8.30;;;7.50;99.90;;;;;;5135464;27;20410;-62
2022/12/24 02:12:21;;;;;;;11.90;8.57;;;7.50;99.90;;;;;;5135540;27;20415;-62
2022/12/24 02:14:48;;;;;;;10.73;8.45;;;7.60;99.90;;;;;;5135386;27;20417;-61
2022/12/24 02:17:25;;;;;;;11.35;8.40;;;7.60;99.90;;;;;;5135147;27;20429;-61
2022/12/24 02:20:35;;;;;;;10.85;7.75;;;7.60;99.90;;;;;;5134973;27;20477;-61
2022/12/24 02:23:16;;;;;;;11.77;7.80;;;7.60;99.90;;;;;;5134998;27;20409;-61
2022/12/24 02:26:00;;;;;;;14.45;7.75;;;7.60;99.90;;;;;;5135091;27;20409;-61
2022/12/24 02:28:46;;;;;;;11.65;7.53;;;7.70;99.90;;;;;;5134937;27;20410;-62
2022/12/24 02:31:19;;;;;;;11.50;7.60;;;7.70;99.90;;;;;;5134811;27;20406;-61
2022/12/24 02:33:50;;;;;;;10.60;6.85;;;7.70;99.90;;;;;;5135499;27;20457;-61
2022/12/24 02:36:23;;;;;;;14.90;6.25;;;7.80;99.90;;;;;;5134783;27;20951;-61
2022/12/24 02:38:55;;;;;;;13.27;5.90;;;8.00;99.90;;;;;;5134827;27;20425;-62
2022/12/24 02:41:25;;;;;;;12.40;5.35;;;8.10;99.90;;;;;;5134810;27;20406;-61
2022/12/24 02:43:54;;;;;;;13.10;5.38;;;8.40;99.90;;;;;;5134600;27;20801;-62
2022/12/24 02:46:25;;;;;;;8.27;4.45;;;8.50;99.90;;;;;;5134804;27;20786;-62
2022/12/24 02:48:53;;;;;;;10.90;4.50;;;8.70;99.90;;;;;;5134304;27;20426;-61
2022/12/24 02:51:23;;;;;;;9.50;4.57;;;8.80;99.90;;;;;;5133770;27;20410;-61
2022/12/24 02:53:50;;;;;;;9.10;3.70;;;8.90;99.90;;;;;;5134863;27;20414;-62
2022/12/24 02:56:36;;;;;;;11.00;4.10;;;9.00;99.90;;;;;;5134426;27;20424;-61
2022/12/24 02:59:19;;;;;;;8.98;3.72;;;9.00;99.90;;;;;;5134762;27;20406;-61
2022/12/24 03:01:56;;;;;;;13.65;4.43;;;9.10;99.90;;;;;;5134959;27;20444;-62
2022/12/24 03:04:39;;;;;;;10.52;3.97;;;9.10;99.90;;;;;;5134651;27;20418;-63
2022/12/24 03:07:13;;;;;;;8.55;3.15;;;9.10;99.90;;;;;;5135000;27;20482;-62
2022/12/24 03:09:58;;;;;;;12.63;3.80;;;9.20;99.90;;;;;;5134408;27;20414;-63
2022/12/24 03:12:30;;;;;;;10.43;3.40;;;9.20;99.90;;;;;;5134111;27;20905;-63
2022/12/24 03:14:57;;;;;;;10.10;3.50;;;9.30;99.90;;;;;;5134501;27;20472;-62
2022/12/24 03:17:26;;;;;;;10.85;3.28;;;9.30;99.90;;;;;;5134396;27;20425;-62
2022/12/24 03:19:55;;;;;;;9.57;3.10;;;9.30;99.90;;;;;;5134122;27;20415;-63
2022/12/24 03:22:23;;;;;;;8.70;3.22;;;9.30;99.90;;;;;;5134423;27;20410;-60
2022/12/24 03:24:50;;;;;;;11.57;3.38;;;9.30;99.90;;;;;;5133672;27;20828;-61
2022/12/24 03:27:17;;;;;;;6.28;2.70;;;9.30;99.90;;;;;;5134131;27;20403;-61
2022/12/24 03:29:45;;;;;;;9.05;3.72;;;9.30;99.90;;;;;;5134381;27;20440;-62
2022/12/24 03:32:12;;;;;;;9.48;3.03;;;9.30;99.90;;;;;;5134888;27;20406;-62
2022/12/24 03:34:40;;;;;;;10.23;3.47;;;9.30;99.90;;;;;;5134913;27;20753;-61
2022/12/24 03:37:07;;;;;;;10.80;3.30;;;9.30;99.90;;;;;;5134695;27;20418;-62
2022/12/24 03:39:34;;;;;;;10.97;2.90;;;9.30;99.90;;;;;;5134783;27;20439;-61
2022/12/24 03:42:01;;;;;;;10.93;3.10;;;9.30;99.90;;;;;;5134464;27;20403;-62
2022/12/24 03:44:27;;;;;;;13.27;3.38;;;9.30;99.90;;;;;;5134717;27;20411;-62
2022/12/24 03:46:54;;;;;;;12.65;4.03;;;9.30;99.90;;;;;;5134585;27;20416;-62
2022/12/24 03:49:21;;;;;;;14.13;3.63;;;9.40;99.90;;;;;;5134160;27;20406;-62
2022/12/24 03:51:49;;;;;;;10.93;3.77;;;9.40;99.90;;;;;;5135027;27;20473;-63
2022/12/24 03:54:16;;;;;;;12.02;3.22;;;9.40;99.90;;;;;;5134940;27;20402;-63
2022/12/24 03:56:42;;;;;;;14.60;3.50;;;9.40;99.90;;;;;;5134914;27;20426;-62
2022/12/24 03:59:09;;;;;;;8.93;2.70;;;9.50;99.90;;;;;;5134821;27;20418;-63
2022/12/24 04:01:36;;;;;;;14.52;4.00;;;9.50;99.90;;;;;;5133980;27;20414;-62
2022/12/24 04:04:03;;;;;;;13.85;3.28;;;9.50;99.90;;;;;;5134269;27;20406;-63
2022/12/24 04:06:29;;;;;;;11.60;2.90;;;9.60;99.90;;;;;;5133825;27;20406;-63
2022/12/24 04:10:50;;;;;;;7.63;2.83;;;9.60;99.90;;;;;;5110888;27;20344;-62
2022/12/24 04:13:16;;;;;;;9.70;3.00;;;9.60;99.90;;;;;;5110269;28;20423;-62
2022/12/24 04:15:43;;;;;;;8.60;3.38;;;9.50;99.90;;;;;;5110119;28;20439;-61
2022/12/24 04:18:10;;;;;;;12.48;3.70;;;9.60;99.90;;;;;;5110793;28;20785;-62
2022/12/24 04:20:36;;;;;;;10.15;3.30;;;9.60;99.90;;;;;;5110025;28;20417;-61
2022/12/24 04:23:03;;;;;;;12.20;4.00;;;9.60;99.90;;;;;;5125986;22;20430;-56
2022/12/24 04:25:30;;;;;;;13.82;3.60;;;9.60;99.90;;;;;;5089518;28;20429;-57
2022/12/24 04:27:58;;;;;;;10.98;3.20;;;9.60;99.90;;;;;;5088894;28;20410;-59
2022/12/24 04:30:25;;;;;;;10.50;3.30;;;9.60;99.90;;;;;;5089140;28;20423;-58
2022/12/24 04:32:51;;;;;;;11.02;3.30;;;9.60;99.90;;;;;;5095784;28;20413;-58
2022/12/24 04:35:18;;;;;;;14.55;3.58;;;9.60;99.90;;;;;;5109449;28;20440;-57
2022/12/24 04:37:45;;;;;;;13.52;4.30;;;9.60;99.90;;;;;;5109519;28;20755;-58
2022/12/24 04:40:12;;;;;;;12.35;3.70;;;9.60;99.90;;;;;;5109320;28;20416;-58
2022/12/24 04:42:39;;;;;;;15.40;4.00;;;9.70;99.90;;;;;;5109606;28;20780;-58
2022/12/24 04:45:08;;;;;;;11.65;3.58;;;9.70;99.90;;;;;;5109464;28;20417;-58
2022/12/24 04:47:35;;;;;;;10.90;3.40;;;9.70;99.90;;;;;;5109371;28;20408;-60
2022/12/24 04:50:02;;;;;;;9.60;3.38;;;9.70;99.90;;;;;;5108985;28;20789;-60
2022/12/24 04:52:29;;;;;;;8.75;2.65;;;9.70;99.90;;;;;;5108743;28;20413;-59
2022/12/24 04:54:55;;;;;;;9.90;2.72;;;9.70;99.90;;;;;;5109011;28;20417;-57
2022/12/24 04:57:22;;;;;;;11.73;3.00;;;9.70;99.90;;;;;;5109008;28;20508;-58
2022/12/24 04:59:49;;;;;;;10.48;3.50;;;9.80;99.90;;;;;;5109098;28;20409;-57
2022/12/24 05:02:17;;;;;;;11.63;3.33;;;9.80;99.90;;;;;;5108852;28;20908;-57
2022/12/24 05:04:44;;;;;;;14.32;3.60;;;9.70;99.90;;;;;;5109113;28;20410;-58
2022/12/24 05:07:10;;;;;;;10.53;3.30;;;9.70;99.90;;;;;;5108909;28;20514;-60
2022/12/24 05:09:37;;;;;;;11.95;3.10;;;9.70;99.90;;;;;;5108869;28;20433;-58
2022/12/24 05:12:05;;;;;;;8.25;2.60;;;9.70;99.90;;;;;;5108993;28;20428;-58
2022/12/24 05:14:32;;;;;;;9.13;2.70;;;9.70;99.90;;;;;;5108768;28;20437;-59
2022/12/24 05:16:59;;;;;;;10.73;2.70;;;9.70;99.90;;;;;;5108413;28;20885;-58
2022/12/24 05:19:27;;;;;;;12.40;3.20;;;9.70;99.90;;;;;;5108581;28;20409;-59
2022/12/24 05:27:18;;;;;;;13.70;3.30;;;9.80;99.90;;;;;;5094589;28;20396;-59
2022/12/24 05:29:45;;;;;;;11.88;3.15;;;9.70;99.90;;;;;;5094588;28;20528;-59
2022/12/24 05:32:12;;;;;;;9.33;3.37;;;9.70;99.90;;;;;;5094481;28;20947;-58
2022/12/24 05:34:40;;;;;;;8.27;3.35;;;9.70;99.90;;;;;;5094885;28;20482;-59
2022/12/24 05:37:07;;;;;;;12.70;3.60;;;9.70;99.90;;;;;;5094724;28;20417;-58
2022/12/24 05:39:34;;;;;;;9.90;3.30;;;9.70;99.90;;;;;;5095221;28;20413;-58
2022/12/24 05:42:00;;;;;;;14.27;3.63;;;9.60;99.90;;;;;;5094573;28;20414;-57
2022/12/24 05:44:27;;;;;;;16.98;4.15;;;9.60;99.90;;;;;;5094102;28;20410;-57
2022/12/24 05:46:54;;;;;;;12.93;3.72;;;9.50;99.90;;;;;;5094157;28;20782;-56
2022/12/24 05:49:21;;;;;;;12.88;3.70;;;9.40;99.90;;;;;;5094443;28;20429;-56
2022/12/24 05:51:49;;;;;;;10.80;3.63;;;9.20;99.90;;;;;;5094490;28;20417;-57
2022/12/24 05:54:15;;;;;;;17.13;4.85;;;9.10;99.90;;;;;;5094173;28;20428;-56
2022/12/24 05:56:42;;;;;;;17.38;4.88;;;9.00;99.90;;;;;;5094889;28;20417;-58
2022/12/24 05:59:09;;;;;;;16.45;4.88;;;8.90;99.90;;;;;;5093908;28;20878;-58
2022/12/24 06:01:36;;;;;;;18.35;5.60;;;8.90;99.90;;;;;;5094166;28;20417;-59
2022/12/24 06:04:03;;;;;;;20.33;5.40;;;8.80;99.90;;;;;;5094055;28;20409;-58
2022/12/24 06:06:29;;;;;;;16.88;4.95;;;8.80;99.90;;;;;;5094200;28;20409;-57
2022/12/24 06:08:58;;;;;;;17.00;5.40;;;8.80;99.90;;;;;;5093914;28;20417;-58
2022/12/24 06:11:26;;;;;;;17.30;5.00;;;8.80;99.90;;;;;;5093975;28;20421;-57
2022/12/24 06:13:53;;;;;;;19.10;5.55;;;8.80;99.90;;;;;;5093893;28;20410;-58
2022/12/24 06:16:21;;;;;;;18.48;5.00;;;8.80;99.90;;;;;;5094071;28;20786;-58
2022/12/24 06:18:48;;;;;;;18.00;5.13;;;8.80;99.90;;;;;;5093568;28;20889;-58
2022/12/24 06:21:15;;;;;;;25.20;5.70;;;8.80;99.90;;;;;;5093852;28;20416;-58
2022/12/24 06:23:44;;;;;;;18.35;5.10;;;8.80;99.90;;;;;;5093339;28;20408;-58
2022/12/24 06:26:13;;;;;;;16.67;5.22;;;8.80;99.90;;;;;;5093296;28;20885;-57
2022/12/24 06:28:40;;;;;;;15.73;4.50;;;8.80;99.90;;;;;;5093598;28;20417;-57
2022/12/24 06:31:10;;;;;;;16.60;4.90;;;8.80;99.90;;;;;;5093108;28;20818;-56
2022/12/24 06:33:37;;;;;;;23.17;5.68;;;8.80;99.90;;;;;;5092222;28;20958;-58
2022/12/24 06:36:06;;;;;;;16.60;4.85;;;8.80;99.90;;;;;;5094246;28;20406;-58
2022/12/24 06:38:33;;;;;;;19.08;5.35;;;8.80;99.90;;;;;;5092965;28;20426;-58
2022/12/24 06:41:00;;;;;;;16.63;5.40;;;8.80;99.90;;;;;;5093149;28;20405;-59
2022/12/24 06:43:28;;;;;;;20.42;6.05;;;8.80;99.90;;;;;;5093371;28;20410;-57
2022/12/24 06:45:54;;;;;;;21.23;5.17;;;8.90;99.90;;;;;;5093390;28;20434;-58
2022/12/24 06:48:21;;;;;;;14.27;4.55;;;8.90;99.90;;;;;;5093169;28;20894;-59
2022/12/24 06:50:48;;;;;;;18.52;5.05;;;8.90;99.90;;;;;;5093451;28;20422;-59
2022/12/24 06:53:15;;;;;;;15.43;4.50;;;8.90;99.90;;;;;;5093697;28;20410;-57
2022/12/24 06:55:41;;;;;;;14.85;4.63;;;9.00;99.90;;;;;;5094234;28;20450;-58
2022/12/24 06:58:08;;;;;;;21.50;4.80;;;9.00;99.90;;;;;;5094233;28;20422;-58
2022/12/24 07:00:37;;;;;;;13.63;4.97;;;9.00;99.90;;;;;;5093838;28;20409;-58
2022/12/24 07:03:04;;;;;;;20.70;4.55;;;9.00;99.90;;;;;;5094315;28;20417;-58
2022/12/24 07:05:31;;;;;;;15.82;4.97;;;9.00;99.90;;;;;;5096085;28;20413;-59
2022/12/24 07:07:58;;;;;;;14.43;4.50;;;8.90;99.90;;;;;;5092809;28;20445;-58
2022/12/24 07:10:25;;;;;;;16.55;4.40;;;8.90;99.90;;;;;;5093211;28;20429;-58
2022/12/24 07:12:51;;;;;;;15.18;4.80;;;8.90;99.90;;;;;;5093287;28;20421;-59
2022/12/24 07:15:18;;;;;;;12.82;4.15;;;8.80;99.90;;;;;;5093000;28;20409;-58
2022/12/24 07:17:46;;;;;;;20.30;4.43;;;8.80;99.90;;;;;;5093116;28;20410;-57
2022/12/24 07:20:14;;;;;;;18.15;5.00;;;8.70;99.90;;;;;;5093178;28;20445;-58
2022/12/24 07:22:41;;;;;;;15.32;4.43;;;8.70;99.90;;;;;;5093354;28;20579;-58
2022/12/24 07:25:09;;;;;;;18.08;4.95;;;8.70;99.90;;;;;;5093186;28;20406;-57
2022/12/24 07:27:36;;;;;;;13.25;4.38;;;8.70;99.90;;;;;;5093356;28;20414;-57
2022/12/24 07:30:03;;;;;;;13.75;4.00;;;8.70;99.90;;;;;;5093099;28;20425;-58
2022/12/24 07:32:29;;;;;;;19.00;4.97;;;8.70;99.90;;;;;;5093508;28;20413;-58
2022/12/24 07:34:57;;;;;;;16.08;4.32;;;8.80;99.90;;;;;;5093134;28;20414;-59
2022/12/24 07:37:24;;;;;;;14.45;4.03;;;8.80;99.90;;;;;;5094810;28;20413;-58
2022/12/24 07:39:51;;;;;;;13.45;3.95;;;8.80;99.90;;;;;;5096206;28;20405;-59
2022/12/24 07:42:18;;;;;;;15.70;4.80;;;8.80;99.90;;;;;;5097125;28;20758;-59
2022/12/24 07:44:44;;;;;;;15.68;4.70;;;8.80;99.90;;;;;;5097003;28;20424;-59
2022/12/24 07:47:11;;;;;;;16.70;3.90;;;8.80;99.90;;;;;;5096545;28;20410;-59
2022/12/24 07:49:38;;;;;;;15.93;4.75;;;8.80;99.90;;;;;;5097230;28;20485;-57
2022/12/24 07:52:06;;;;;;;16.33;5.13;;;8.80;99.90;;;;;;5097117;28;20417;-59
2022/12/24 07:54:33;;;;;;;12.83;3.70;;;8.70;99.90;;;;;;5093421;28;20912;-57
2022/12/24 07:57:00;;;;;;;15.70;4.50;;;8.70;99.90;;;;;;5093071;28;20420;-59
2022/12/24 07:59:26;;;;;;;15.55;4.53;;;8.70;99.90;;;;;;5093346;28;20405;-58
2022/12/24 08:01:53;;;;;;;14.73;4.25;;;8.70;99.90;;;;;;5093512;28;20405;-58
2022/12/24 08:04:20;;;;;;;15.45;4.63;;;8.70;99.90;;;;;;5092854;28;20417;-59
2022/12/24 08:06:46;;;;;;;17.63;4.63;;;8.70;99.90;;;;;;5092731;28;20448;-59
2022/12/24 08:09:15;;;;;;;14.45;4.20;;;8.70;99.90;;;;;;5092461;28;20421;-59
2022/12/24 08:11:41;;;;;;;16.33;4.72;;;8.70;99.90;;;;;;5092483;28;20440;-60
2022/12/24 08:14:08;;;;;;;16.40;4.43;;;8.70;99.90;;;;;;5092369;28;20418;-58
2022/12/24 08:16:35;;;;;;;12.23;3.63;;;8.70;99.90;;;;;;5093174;28;20409;-59
2022/12/24 08:19:01;;;;;;;14.20;4.50;;;8.70;99.90;;;;;;5092376;28;20410;-59
2022/12/24 08:21:30;;;;;;;13.13;3.70;;;8.70;99.90;;;;;;5093585;28;20409;-60
2022/12/24 08:23:57;;;;;;;14.77;3.70;;;8.70;99.90;;;;;;5093997;28;20410;-59
2022/12/24 08:26:25;;;;;;;13.98;4.18;;;8.70;99.90;;;;;;5095285;28;20402;-59
2022/12/24 08:28:52;;;;;;;22.45;4.40;;;8.80;99.90;;;;;;5092184;28;20409;-57
2022/12/24 08:31:19;;;;;;;13.15;3.78;;;8.80;99.90;;;;;;5091684;28;20455;-58
2022/12/24 08:33:45;;;;;;;15.97;4.70;;;8.90;99.90;;;;;;5091943;28;20474;-58
2022/12/24 08:36:12;;;;;;;15.13;4.00;;;8.90;99.90;;;;;;5091861;28;20412;-59
2022/12/24 08:38:39;;;;;;;19.70;5.20;;;9.00;99.90;;;;;;5091553;28;20421;-58
2022/12/24 08:41:06;;;;;;;13.82;4.30;;;9.00;99.90;;;;;;5092223;28;20413;-59
2022/12/24 08:43:34;;;;;;;17.25;5.60;;;9.00;99.90;;;;;;5091799;28;20903;-58
2022/12/24 08:46:03;;;;;;;14.35;4.25;;;9.10;99.90;;;;;;5092204;28;20418;-60
2022/12/24 08:48:30;;;;;;;19.90;5.40;;;9.00;99.90;;;;;;5094357;28;20448;-59
2022/12/24 08:50:57;;;;;;;24.50;5.82;;;9.00;99.90;;;;;;5094866;28;20434;-57
2022/12/24 08:53:24;;;;;;;15.40;5.55;;;9.00;99.90;;;;;;5093745;28;20436;-59
2022/12/24 08:55:51;;;;;;;16.73;4.60;;;8.90;99.90;;;;;;5094721;28;20509;-59
2022/12/24 08:58:17;;;;;;;18.17;5.47;;;8.90;99.90;;;;;;5096217;28;20927;-59
2022/12/24 09:00:45;;;;;;;20.45;5.93;;;8.80;99.90;;;;;;5095735;28;20826;-59
2022/12/24 09:03:15;;;;;;;16.17;4.97;;;8.80;99.90;;;;;;5095801;28;20420;-58
2022/12/24 09:05:42;;;;;;;23.67;5.93;;;8.80;99.90;;;;;;5095718;28;20786;-59
2022/12/24 09:08:09;;;;;;;11.35;4.72;;;8.70;99.90;;;;;;5095687;28;20429;-59
2022/12/24 09:10:35;;;;;;;19.45;5.40;;;8.70;99.90;;;;;;5095394;28;20424;-58
2022/12/24 09:13:02;;;;;;;22.65;6.57;;;8.70;99.90;;;;;;5095445;28;20410;-59
2022/12/24 09:15:29;;;;;;;16.48;6.22;;;8.70;99.90;;;;;;5095198;28;20413;-58
2022/12/24 09:17:57;;;;;;;20.58;6.03;;;8.70;99.90;;;;;;5094957;28;20414;-60
2022/12/24 09:20:24;;;;;;;21.03;7.27;;;8.70;99.90;;;;;;5094769;28;20480;-58
2022/12/24 09:22:53;;;;;;;24.63;7.20;;;8.70;99.90;;;;;;5094683;28;20425;-59
2022/12/24 09:25:20;;;;;;;19.27;7.32;;;8.70;99.90;;;;;;5095048;28;20418;-59
2022/12/24 09:27:47;;;;;;;24.33;7.90;;;8.80;99.90;;;;;;5095028;28;20409;-58
2022/12/24 09:30:15;;;;;;;21.92;7.05;;;8.80;99.90;;;;;;5094820;28;20421;-58
2022/12/24 09:32:42;;;;;;;17.97;7.30;;;8.90;99.90;;;;;;5094614;28;20915;-58
2022/12/24 09:35:10;;;;;;;18.02;8.57;;;8.90;99.90;;;;;;5094731;28;20437;-59
2022/12/24 09:37:40;;;;;;;22.80;8.03;;;8.90;99.90;;;;;;5094505;28;20413;-57
2022/12/24 09:40:08;;;;;;;22.50;8.48;;;9.00;99.90;;;;;;5094115;28;20422;-59
2022/12/24 09:42:44;;;;;;;26.50;8.68;;;9.00;99.90;;;;;;5094768;28;20417;-59
2022/12/24 09:45:18;;;;;;;25.38;8.80;;;9.10;99.90;;;;;;5094479;28;20892;-59
2022/12/24 09:47:50;;;;;;;24.90;8.25;;;9.30;99.90;;;;;;5094352;28;20881;-58
2022/12/24 09:50:32;;;;;;;22.10;7.95;;;9.40;99.90;;;;;;5094258;28;20414;-59
2022/12/24 09:53:04;;;;;;;20.05;8.00;;;9.50;99.90;;;;;;5094341;28;20418;-59
2022/12/24 09:55:35;;;;;;;20.70;7.40;;;9.60;99.90;;;;;;5094638;28;20436;-59
2022/12/24 09:58:05;;;;;;;20.50;7.45;;;9.70;99.90;;;;;;5095423;28;20409;-60
2022/12/24 10:00:36;;;;;;;19.13;6.57;;;9.80;99.90;;;;;;5095924;28;20422;-59
2022/12/24 10:03:14;;;;;;;17.17;6.85;;;9.90;99.90;;;;;;5095045;28;20409;-59
2022/12/24 10:05:48;;;;;;;17.85;6.93;;;9.90;99.90;;;;;;5094840;28;20429;-58
2022/12/24 10:08:27;;;;;;;17.70;7.90;;;10.00;99.90;;;;;;5094953;28;20413;-60
2022/12/24 10:10:59;;;;;;;18.45;6.47;;;10.00;99.90;;;;;;5094705;28;20758;-57
2022/12/24 10:13:40;;;;;;;16.65;6.38;;;10.00;99.90;;;;;;5094067;28;20414;-59
2022/12/24 10:16:13;;;;;;;17.65;6.80;;;10.10;99.90;;;;;;5094165;28;20417;-59
2022/12/24 10:18:50;;;;;;;19.52;6.20;;;10.20;99.90;;;;;;5094619;28;20609;-56
2022/12/24 10:21:27;;;;;;;19.07;6.17;;;10.20;99.90;;;;;;5093531;28;20405;-60
2022/12/24 10:24:02;;;;;;;14.30;5.97;;;10.30;99.90;;;;;;5150909;22;20457;-65
2022/12/24 10:26:35;;;;;;;16.20;5.13;;;10.30;99.90;;;;;;5114664;28;20884;-64
2022/12/24 10:29:11;;;;;;;19.45;5.78;;;10.40;99.90;;;;;;5114792;28;20420;-65
2022/12/24 10:31:49;;;;;;;17.00;5.85;;;10.40;99.90;;;;;;5114652;28;20423;-64
2022/12/24 10:34:20;;;;;;;19.30;5.70;;;10.40;99.90;;;;;;5114416;28;20416;-64
2022/12/24 10:36:48;;;;;;;15.68;5.40;;;10.50;99.90;;;;;;5114477;28;20872;-64
2022/12/24 10:39:19;;;;;;;17.10;6.10;;;10.50;99.90;;;;;;5115899;27;20419;-64
2022/12/24 10:41:48;;;;;;;19.75;5.65;;;10.50;99.90;;;;;;5116670;28;20478;-64
2022/12/24 10:44:17;;;;;;;20.27;6.20;;;10.50;99.90;;;;;;5115631;28;20421;-63
2022/12/24 10:46:46;;;;;;;18.58;5.80;;;10.60;99.90;;;;;;5114677;28;20412;-63
2022/12/24 10:49:15;;;;;;;16.02;5.40;;;10.60;99.90;;;;;;5115396;28;20412;-63
2022/12/24 10:51:50;;;;;;;14.23;4.88;;;10.70;99.90;;;;;;5114639;28;20490;-63
2022/12/24 10:54:19;;;;;;;17.23;5.65;;;10.70;99.90;;;;;;5115131;28;20442;-64
2022/12/24 10:56:49;;;;;;;15.43;5.03;;;10.70;99.90;;;;;;5114708;28;20924;-66
2022/12/24 10:59:27;;;;;;;12.17;4.80;;;10.60;99.90;;;;;;5115172;28;20530;-64
2022/12/24 11:01:55;;;;;;;12.82;4.80;;;10.60;99.90;;;;;;5115508;28;20392;-64
2022/12/24 11:04:24;;;;;;;14.75;4.35;;;10.60;99.90;;;;;;5115655;27;20911;-63
2022/12/24 11:07:00;;;;;;;13.73;5.25;;;10.60;99.90;;;;;;5114575;28;20465;-64
2022/12/24 11:09:29;;;;;;;12.68;4.38;;;10.60;99.90;;;;;;5113872;28;20419;-65
2022/12/24 11:11:58;;;;;;;12.88;4.28;;;10.60;99.90;;;;;;5114006;28;20807;-65
2022/12/24 11:14:27;;;;;;;10.38;3.80;;;10.60;99.90;;;;;;5114493;28;20427;-65
2022/12/24 11:16:55;;;;;;;10.80;4.20;;;10.50;99.90;;;;;;5115051;28;20411;-65
2022/12/24 11:19:30;;;;;;;13.20;4.55;;;10.50;99.90;;;;;;5114747;27;20503;-64
2022/12/24 11:22:04;;;;;;;11.90;4.93;;;10.40;99.90;;;;;;5115438;28;20436;-65
2022/12/24 11:24:33;;;;;;;13.10;4.85;;;10.40;99.90;;;;;;5114500;28;20419;-64
2022/12/24 11:27:24;;;;;;;12.00;4.78;;;10.40;99.90;;;;;;5115469;28;20411;-64
2022/12/24 11:29:51;;;;;;;14.55;4.45;;;10.30;99.90;;;;;;5115152;28;20484;-64
2022/12/24 11:32:21;;;;;;;12.47;5.33;;;10.20;99.90;;;;;;5114388;28;20416;-65
2022/12/24 11:34:48;;;;;;;12.17;4.70;;;10.20;99.90;;;;;;5113879;28;20809;-64
2022/12/24 11:37:20;;;;;;;12.43;5.18;;;10.20;99.90;;;;;;5114178;28;20416;-65
2022/12/24 11:39:50;;;;;;;14.20;5.30;;;10.10;99.90;;;;;;5113448;28;20500;-65
2022/12/24 11:42:27;;;;;;;15.27;5.10;;;10.10;99.90;;;;;;5113546;28;20412;-63
2022/12/24 11:44:56;;;;;;;12.75;5.20;;;10.10;99.90;;;;;;5113284;28;20411;-64
2022/12/24 11:47:33;;;;;;;12.82;5.38;;;10.10;99.90;;;;;;5113238;28;20448;-63
2022/12/24 11:50:20;;;;;;;13.15;5.82;;;10.10;99.90;;;;;;5114022;28;20412;-65
2022/12/24 11:52:52;;;;;;;11.38;5.22;;;10.00;99.90;;;;;;5113288;28;20427;-63
2022/12/24 11:55:24;;;;;;;11.88;4.85;;;9.90;99.90;;;;;;5113950;28;20408;-63
2022/12/24 11:57:58;;;;;;;14.20;4.78;;;9.90;99.90;;;;;;5114278;28;20412;-64
2022/12/24 12:00:26;;;;;;;11.63;4.40;;;9.90;99.90;;;;;;5113816;28;20921;-64
2022/12/24 12:02:56;;;;;;;9.38;4.50;;;9.80;99.90;;;;;;5114694;28;20400;-62
2022/12/24 12:05:27;;;;;;;12.02;3.92;;;9.80;99.90;;;;;;5113629;28;20416;-63
2022/12/24 12:08:03;;;;;;;10.70;4.03;;;9.80;99.90;;;;;;5114731;28;20408;-64
2022/12/24 12:10:33;;;;;;;11.63;3.90;;;9.70;99.90;;;;;;5114444;28;20773;-65
2022/12/24 12:13:04;;;;;;;10.13;3.90;;;9.70;99.90;;;;;;5114003;28;20864;-63
2022/12/24 12:15:35;;;;;;;8.43;3.58;;;9.70;99.90;;;;;;5112963;28;20408;-64
2022/12/24 12:18:09;;;;;;;10.05;4.15;;;9.60;99.90;;;;;;5114146;28;20412;-63
2022/12/24 12:20:41;;;;;;;10.90;4.00;;;9.60;99.90;;;;;;5113381;28;20419;-64
2022/12/24 12:23:15;;;;;;;9.00;3.15;;;9.60;99.90;;;;;;5113022;28;20404;-64
2022/12/24 12:25:47;;;;;;;7.82;3.10;;;9.50;99.90;;;;;;5113754;28;20416;-64
2022/12/24 12:28:21;;;;;;;10.20;3.03;;;9.50;99.90;;;;;;5113492;28;20434;-65
2022/12/24 12:30:59;;;;;;;9.13;3.13;;;9.50;99.90;;;;;;5114628;28;20430;-63
2022/12/24 12:33:33;;;;;;;6.82;2.60;;;9.50;99.90;;;;;;5118769;28;20415;-64
2022/12/24 12:36:01;;;;;;;5.18;3.20;;;9.60;99.90;;;;;;5118190;28;20404;-64
2022/12/24 12:38:29;;;;;;;6.60;2.50;;;9.70;99.90;;;;;;5118194;27;20419;-64
2022/12/24 12:41:18;;;;;;;10.13;2.97;;;9.70;99.90;;;;;;5117885;27;20521;-63
2022/12/24 12:44:19;;;;;;;7.75;3.00;;;9.70;99.90;;;;;;5117175;28;20887;-64
2022/12/24 12:46:58;;;;;;;7.63;3.53;;;9.60;99.90;;;;;;5113322;28;20431;-63
2022/12/24 12:49:36;;;;;;;10.13;3.92;;;9.60;99.90;;;;;;5117143;28;20412;-63
2022/12/24 12:52:09;;;;;;;9.70;4.40;;;9.70;99.90;;;;;;5116857;28;20415;-64
2022/12/24 12:54:49;;;;;;;14.27;4.60;;;9.80;99.90;;;;;;5117140;28;20415;-64
2022/12/24 12:57:19;;;;;;;11.90;4.38;;;9.90;99.90;;;;;;5117085;28;20434;-65
2022/12/24 12:59:50;;;;;;;12.30;4.97;;;10.00;99.90;;;;;;5116544;28;20415;-64
2022/12/24 13:02:49;;;;;;;10.63;4.30;;;10.10;99.90;;;;;;5116879;28;20860;-65
2022/12/24 13:05:48;;;;;;;9.18;4.50;;;10.10;99.90;;;;;;5117396;28;20404;-65
2022/12/24 13:08:42;;;;;;;14.60;5.00;;;10.10;99.90;;;;;;5117355;28;20415;-64
2022/12/24 13:11:28;;;;;;;14.90;5.10;;;10.20;99.90;;;;;;5112896;28;20423;-64